Time;durP1;ratioP1;P1;durP2;ratioP2;P2;SDS_P1;SDS_P2;PMS_P1;PMS_P2;Temp;Humidity;BMP_temperature;BMP_pressure;BME280_temperature;BME280_humidity;BME280_pressure;Samples;Min_cycle;Max_cycle;Signal;HPM_P1;HPM_P2
2023/07/15 00:01:28;;;;;;;;;1.75;1.00;;;;;;;;4979579;28;45784;-75
2023/07/15 00:03:54;;;;;;;;;2.75;2.75;;;;;;;;4951030;28;45645;-75
2023/07/15 00:06:21;;;;;;;;;1.50;1.00;;;;;;;;4975552;28;45403;-74
2023/07/15 00:08:46;;;;;;;;;0.75;0.75;;;;;;;;4982779;28;45818;-72
2023/07/15 00:11:23;;;;;;;;;1.25;1.25;;;;;;;;4979121;28;45759;-72
2023/07/15 00:13:48;;;;;;;;;1.00;1.00;;;;;;;;4970777;28;46213;-73
2023/07/15 00:16:14;;;;;;;;;0.50;0.50;;;;;;;;4978743;28;45844;-74
2023/07/15 00:18:40;;;;;;;;;2.00;2.00;;;;;;;;4983608;28;45469;-71
2023/07/15 00:21:14;;;;;;;;;3.25;3.25;;;;;;;;4966456;28;45523;-73
2023/07/15 00:23:39;;;;;;;;;3.00;3.00;;;;;;;;4958329;28;47325;-72
2023/07/15 00:26:05;;;;;;;;;5.25;5.00;;;;;;;;4957540;28;45829;-71
2023/07/15 00:28:30;;;;;;;;;6.75;6.75;;;;;;;;4952622;28;45723;-72
2023/07/15 00:30:56;;;;;;;;;8.75;8.75;;;;;;;;4969973;28;45839;-73
2023/07/15 00:33:21;;;;;;;;;10.75;6.75;;;;;;;;4982438;28;46357;-71
2023/07/15 00:35:47;;;;;;;;;7.75;5.00;;;;;;;;4966952;28;45535;-74
2023/07/15 00:38:12;;;;;;;;;4.00;4.00;;;;;;;;4981596;28;45475;-74
2023/07/15 00:40:39;;;;;;;;;6.00;5.25;;;;;;;;4967446;28;45734;-72
2023/07/15 00:43:23;;;;;;;;;4.50;2.75;;;;;;;;4974878;28;45603;-70
2023/07/15 00:46:07;;;;;;;;;8.00;3.00;;;;;;;;4970648;28;45522;-71
2023/07/15 00:48:34;;;;;;;;;2.25;2.25;;;;;;;;4970338;28;45794;-72
2023/07/15 00:50:59;;;;;;;;;3.00;3.00;;;;;;;;4973000;28;45541;-73
2023/07/15 00:53:24;;;;;;;;;3.00;2.00;;;;;;;;4987973;28;45644;-71
2023/07/15 00:55:50;;;;;;;;;3.25;3.25;;;;;;;;4975166;28;45676;-71
2023/07/15 00:58:15;;;;;;;;;2.50;2.00;;;;;;;;4951553;28;45928;-75
2023/07/15 01:00:40;;;;;;;;;2.00;2.00;;;;;;;;4976770;28;45767;-72
2023/07/15 01:03:05;;;;;;;;;2.00;1.25;;;;;;;;4968921;28;47493;-72
2023/07/15 01:05:31;;;;;;;;;1.00;1.00;;;;;;;;4984164;28;45691;-73
2023/07/15 01:07:57;;;;;;;;;2.00;2.00;;;;;;;;4976944;28;45921;-73
2023/07/15 01:10:22;;;;;;;;;3.00;1.50;;;;;;;;4981411;28;45633;-74
2023/07/15 01:12:47;;;;;;;;;1.25;1.25;;;;;;;;4974484;28;45810;-72
2023/07/15 01:15:12;;;;;;;;;1.00;1.00;;;;;;;;4951727;28;46187;-72
2023/07/15 01:17:37;;;;;;;;;2.00;1.00;;;;;;;;4974298;28;45322;-72
2023/07/15 01:20:05;;;;;;;;;0.25;0.25;;;;;;;;4978806;28;45850;-71
2023/07/15 01:22:33;;;;;;;;;2.00;2.00;;;;;;;;4975311;28;46401;-72
2023/07/15 01:24:59;;;;;;;;;3.00;1.00;;;;;;;;4974997;28;45612;-71
2023/07/15 01:27:26;;;;;;;;;1.00;1.00;;;;;;;;4976432;28;45603;-71
2023/07/15 01:29:51;;;;;;;;;1.25;0.75;;;;;;;;4972980;28;46894;-73
2023/07/15 01:32:17;;;;;;;;;2.75;1.50;;;;;;;;4975988;28;47588;-72
2023/07/15 01:34:42;;;;;;;;;3.00;2.00;;;;;;;;4991205;28;45772;-72
2023/07/15 01:37:07;;;;;;;;;1.75;1.75;;;;;;;;4994354;28;45790;-72
2023/07/15 01:39:34;;;;;;;;;0.75;0.75;;;;;;;;4993681;28;45832;-71
2023/07/15 01:41:59;;;;;;;;;1.00;0.25;;;;;;;;4990804;28;46114;-71
2023/07/15 01:44:25;;;;;;;;;0.00;0.00;;;;;;;;4992386;28;45623;-72
2023/07/15 01:46:50;;;;;;;;;1.75;1.75;;;;;;;;4989143;28;45764;-71
2023/07/15 01:49:15;;;;;;;;;2.00;1.00;;;;;;;;4971913;28;45748;-71
2023/07/15 01:51:40;;;;;;;;;1.00;1.00;;;;;;;;4972827;28;46280;-71
2023/07/15 01:54:06;;;;;;;;;0.75;0.75;;;;;;;;4973515;28;45526;-71
2023/07/15 01:56:31;;;;;;;;;0.25;0.00;;;;;;;;4956113;28;45397;-71
2023/07/15 01:58:56;;;;;;;;;0.25;0.25;;;;;;;;4948082;28;45902;-73
2023/07/15 02:01:22;;;;;;;;;1.00;1.00;;;;;;;;4975369;28;46516;-72
2023/07/15 02:03:48;;;;;;;;;1.00;1.00;;;;;;;;4973374;28;45870;-73
2023/07/15 02:06:14;;;;;;;;;0.00;0.00;;;;;;;;4958441;28;45535;-72
2023/07/15 02:08:39;;;;;;;;;0.00;0.00;;;;;;;;4991086;28;45462;-71
2023/07/15 02:11:05;;;;;;;;;0.25;0.25;;;;;;;;4965201;28;45407;-72
2023/07/15 02:13:30;;;;;;;;;0.75;0.75;;;;;;;;4943849;28;46043;-73
2023/07/15 02:15:55;;;;;;;;;0.00;0.00;;;;;;;;4961199;28;45658;-72
2023/07/15 02:18:22;;;;;;;;;0.00;0.00;;;;;;;;4960387;28;45538;-71
2023/07/15 02:20:49;;;;;;;;;0.75;0.75;;;;;;;;4970804;28;46552;-72
2023/07/15 02:23:15;;;;;;;;;0.00;0.00;;;;;;;;4971525;28;45858;-72
2023/07/15 02:25:40;;;;;;;;;0.50;0.50;;;;;;;;4974069;28;45643;-72
2023/07/15 02:28:05;;;;;;;;;0.00;0.00;;;;;;;;4974510;28;45905;-72
2023/07/15 02:30:31;;;;;;;;;0.00;0.00;;;;;;;;4972034;28;45776;-71
2023/07/15 02:32:57;;;;;;;;;0.25;0.25;;;;;;;;4986618;28;45502;-72
2023/07/15 02:35:23;;;;;;;;;0.75;0.75;;;;;;;;4974100;28;45527;-71
2023/07/15 02:37:49;;;;;;;;;1.25;0.75;;;;;;;;4973971;28;45443;-72
2023/07/15 02:40:14;;;;;;;;;0.00;0.00;;;;;;;;4976297;28;46457;-72
2023/07/15 02:42:39;;;;;;;;;1.00;0.50;;;;;;;;4983921;28;45528;-71
2023/07/15 02:45:06;;;;;;;;;0.00;0.00;;;;;;;;4981818;28;45434;-73
2023/07/15 02:47:31;;;;;;;;;1.00;1.00;;;;;;;;4981693;28;45840;-71
2023/07/15 02:50:00;;;;;;;;;3.00;0.50;;;;;;;;4978545;28;45458;-72
2023/07/15 02:52:26;;;;;;;;;0.00;0.00;;;;;;;;4987139;28;45865;-69
2023/07/15 02:54:51;;;;;;;;;1.75;1.00;;;;;;;;4991788;28;45509;-72
2023/07/15 02:57:17;;;;;;;;;3.00;3.00;;;;;;;;4978468;28;45541;-73
2023/07/15 02:59:42;;;;;;;;;0.00;0.00;;;;;;;;4973220;28;45575;-72
2023/07/15 03:02:10;;;;;;;;;1.00;1.00;;;;;;;;4955792;28;45628;-72
2023/07/15 03:04:36;;;;;;;;;1.00;1.00;;;;;;;;4971923;28;45691;-71
2023/07/15 03:07:01;;;;;;;;;1.75;1.50;;;;;;;;4961094;28;46125;-71
2023/07/15 03:09:27;;;;;;;;;0.75;0.75;;;;;;;;4957770;28;48215;-70
2023/07/15 03:11:52;;;;;;;;;1.00;1.00;;;;;;;;4955148;28;46072;-71
2023/07/15 03:14:17;;;;;;;;;0.50;0.50;;;;;;;;4974769;28;45627;-71
2023/07/15 03:16:42;;;;;;;;;1.75;0.25;;;;;;;;4983723;28;45503;-72
2023/07/15 03:19:07;;;;;;;;;1.50;0.00;;;;;;;;4958362;28;47779;-72
2023/07/15 03:21:33;;;;;;;;;1.00;1.00;;;;;;;;4956317;28;45446;-71
2023/07/15 03:23:58;;;;;;;;;0.00;0.00;;;;;;;;4953140;28;45485;-70
2023/07/15 03:26:24;;;;;;;;;0.75;0.00;;;;;;;;4949895;28;45931;-72
2023/07/15 03:28:49;;;;;;;;;0.25;0.25;;;;;;;;4971865;28;45510;-71
2023/07/15 03:31:14;;;;;;;;;1.50;0.50;;;;;;;;4974536;28;45548;-71
2023/07/15 03:33:39;;;;;;;;;0.00;0.00;;;;;;;;4975267;28;45767;-71
2023/07/15 03:36:04;;;;;;;;;2.25;1.00;;;;;;;;4970954;28;45681;-71
2023/07/15 03:38:30;;;;;;;;;0.00;0.00;;;;;;;;4973712;28;46009;-71
2023/07/15 03:40:55;;;;;;;;;0.50;0.50;;;;;;;;4957300;28;45612;-71
2023/07/15 03:43:20;;;;;;;;;2.00;1.00;;;;;;;;4973031;28;46349;-71
2023/07/15 03:45:46;;;;;;;;;2.75;1.50;;;;;;;;4976395;28;45928;-70
2023/07/15 03:48:11;;;;;;;;;1.25;0.25;;;;;;;;4970855;28;45927;-71
2023/07/15 03:50:36;;;;;;;;;3.00;0.00;;;;;;;;4975052;28;45497;-70
2023/07/15 03:53:02;;;;;;;;;2.00;0.25;;;;;;;;4960764;28;45512;-71
2023/07/15 03:55:27;;;;;;;;;2.00;2.00;;;;;;;;4975400;28;45712;-71
2023/07/15 03:57:52;;;;;;;;;1.50;1.00;;;;;;;;4975816;28;46514;-71
2023/07/15 04:00:17;;;;;;;;;0.75;0.75;;;;;;;;4971264;28;45507;-73
2023/07/15 04:02:49;;;;;;;;;0.00;0.00;;;;;;;;4967408;28;45622;-71
2023/07/15 04:05:14;;;;;;;;;0.00;0.00;;;;;;;;4947031;28;45518;-72
2023/07/15 04:07:40;;;;;;;;;1.00;1.00;;;;;;;;4980686;28;45477;-71
2023/07/15 04:10:06;;;;;;;;;0.25;0.00;;;;;;;;4955276;28;45455;-72
2023/07/15 04:12:31;;;;;;;;;0.00;0.00;;;;;;;;4952074;28;45823;-71
2023/07/15 04:14:56;;;;;;;;;1.00;1.00;;;;;;;;4980035;28;45466;-71
2023/07/15 04:17:21;;;;;;;;;0.75;0.75;;;;;;;;4977977;28;46519;-71
2023/07/15 04:19:46;;;;;;;;;3.00;1.00;;;;;;;;4952306;28;45926;-72
2023/07/15 04:22:13;;;;;;;;;0.00;0.00;;;;;;;;4982938;28;45992;-72
2023/07/15 04:24:38;;;;;;;;;0.00;0.00;;;;;;;;4981077;28;45481;-72
2023/07/15 04:27:03;;;;;;;;;1.25;1.25;;;;;;;;4972369;28;45667;-72
2023/07/15 04:29:31;;;;;;;;;2.00;1.00;;;;;;;;4974153;28;45620;-71
2023/07/15 04:31:57;;;;;;;;;1.00;1.00;;;;;;;;4967899;28;45500;-72
2023/07/15 04:34:22;;;;;;;;;1.00;1.00;;;;;;;;4981429;28;45767;-71
2023/07/15 04:36:47;;;;;;;;;1.00;1.00;;;;;;;;4988397;28;46355;-71
2023/07/15 04:39:13;;;;;;;;;1.00;1.00;;;;;;;;4986665;28;45983;-73
2023/07/15 04:41:38;;;;;;;;;1.00;1.00;;;;;;;;4967895;28;45901;-70
2023/07/15 04:44:03;;;;;;;;;0.00;0.00;;;;;;;;4986474;28;45779;-71
2023/07/15 04:46:29;;;;;;;;;0.00;0.00;;;;;;;;4966607;28;45874;-72
2023/07/15 04:48:54;;;;;;;;;0.00;0.00;;;;;;;;4967405;28;45443;-71
2023/07/15 04:51:19;;;;;;;;;0.00;0.00;;;;;;;;4961484;28;45655;-71
2023/07/15 04:53:46;;;;;;;;;1.00;1.00;;;;;;;;4983212;28;45703;-72
2023/07/15 04:56:11;;;;;;;;;0.75;0.75;;;;;;;;4958557;28;46332;-71
2023/07/15 04:58:37;;;;;;;;;2.00;0.75;;;;;;;;4984067;28;45711;-73
2023/07/15 05:01:02;;;;;;;;;1.25;0.00;;;;;;;;4993123;28;45591;-72
2023/07/15 05:03:28;;;;;;;;;1.50;1.50;;;;;;;;4982362;28;45700;-72
2023/07/15 05:05:53;;;;;;;;;1.00;1.00;;;;;;;;4985388;28;46102;-72
2023/07/15 05:08:19;;;;;;;;;0.25;0.25;;;;;;;;4987327;28;45440;-72
2023/07/15 05:10:45;;;;;;;;;2.50;1.00;;;;;;;;4972725;28;45541;-73
2023/07/15 05:13:11;;;;;;;;;1.50;1.25;;;;;;;;4970795;28;45332;-71
2023/07/15 05:15:36;;;;;;;;;2.00;1.00;;;;;;;;4974781;28;45764;-72
2023/07/15 05:18:01;;;;;;;;;1.00;1.00;;;;;;;;4968957;28;45770;-72
2023/07/15 05:20:26;;;;;;;;;0.00;0.00;;;;;;;;4986585;28;45993;-73
2023/07/15 05:22:52;;;;;;;;;2.00;2.00;;;;;;;;4968619;28;45617;-72
2023/07/15 05:25:17;;;;;;;;;0.00;0.00;;;;;;;;4974009;28;46349;-71
2023/07/15 05:27:42;;;;;;;;;2.00;1.75;;;;;;;;4979981;28;45587;-78
2023/07/15 05:30:11;;;;;;;;;2.00;1.00;;;;;;;;4986281;28;45605;-78
2023/07/15 05:32:36;;;;;;;;;1.25;1.00;;;;;;;;4973569;28;46091;-78
2023/07/15 05:35:02;;;;;;;;;2.00;2.00;;;;;;;;4979706;28;45992;-78
2023/07/15 05:37:27;;;;;;;;;1.00;1.00;;;;;;;;4980610;28;45686;-78
2023/07/15 05:39:52;;;;;;;;;1.00;0.75;;;;;;;;4979483;28;45518;-78
2023/07/15 05:42:18;;;;;;;;;2.25;1.00;;;;;;;;4959215;28;47229;-78
2023/07/15 05:44:43;;;;;;;;;1.75;1.00;;;;;;;;4973373;28;45737;-77
2023/07/15 05:47:09;;;;;;;;;2.00;1.00;;;;;;;;4971199;28;45944;-78
2023/07/15 05:49:39;;;;;;;;;1.00;1.00;;;;;;;;4968350;28;45776;-79
2023/07/15 05:52:04;;;;;;;;;1.00;1.00;;;;;;;;4973133;28;45974;-77
2023/07/15 05:54:29;;;;;;;;;1.00;1.00;;;;;;;;4970148;28;45463;-78
2023/07/15 05:56:55;;;;;;;;;2.00;1.00;;;;;;;;4966444;28;45744;-80
2023/07/15 05:59:20;;;;;;;;;0.75;0.75;;;;;;;;4971757;28;45930;-78
2023/07/15 06:01:46;;;;;;;;;1.50;1.50;;;;;;;;4961297;28;45707;-79
2023/07/15 06:04:11;;;;;;;;;1.00;1.00;;;;;;;;4989198;28;45801;-78
2023/07/15 06:06:36;;;;;;;;;1.25;0.25;;;;;;;;4979808;28;45667;-77
2023/07/15 06:09:02;;;;;;;;;1.00;1.00;;;;;;;;4975280;28;45493;-79
2023/07/15 06:11:27;;;;;;;;;1.00;1.00;;;;;;;;4964335;28;45836;-80
2023/07/15 06:13:52;;;;;;;;;1.75;1.00;;;;;;;;4975692;28;46225;-79
2023/07/15 06:16:18;;;;;;;;;1.25;1.25;;;;;;;;4965628;28;45520;-79
2023/07/15 06:18:43;;;;;;;;;1.00;1.00;;;;;;;;4979820;28;45381;-80
2023/07/15 06:21:08;;;;;;;;;1.00;1.00;;;;;;;;4983828;28;46001;-79
2023/07/15 06:23:33;;;;;;;;;1.75;1.75;;;;;;;;4967185;28;45818;-79
2023/07/15 06:25:59;;;;;;;;;2.25;0.75;;;;;;;;4976025;28;45974;-79
2023/07/15 06:28:24;;;;;;;;;1.00;1.00;;;;;;;;4980542;28;45395;-79
2023/07/15 06:30:50;;;;;;;;;1.50;0.75;;;;;;;;4972527;28;45409;-78
2023/07/15 06:33:15;;;;;;;;;1.00;1.00;;;;;;;;4975885;28;46842;-80
2023/07/15 06:35:41;;;;;;;;;1.00;1.00;;;;;;;;4962579;28;47114;-79
2023/07/15 06:38:06;;;;;;;;;1.75;1.00;;;;;;;;4972284;28;45431;-80
2023/07/15 06:40:32;;;;;;;;;0.00;0.00;;;;;;;;4969043;28;45683;-79
2023/07/15 06:42:57;;;;;;;;;0.00;0.00;;;;;;;;4973087;28;46019;-79
2023/07/15 06:45:31;;;;;;;;;2.00;1.00;;;;;;;;4969434;28;45794;-79
2023/07/15 06:47:56;;;;;;;;;4.00;2.00;;;;;;;;4975108;28;45443;-80
2023/07/15 06:50:22;;;;;;;;;0.25;0.25;;;;;;;;4977104;28;45572;-79
2023/07/15 06:52:47;;;;;;;;;1.75;1.75;;;;;;;;4974239;28;45462;-79
2023/07/15 06:55:12;;;;;;;;;2.50;1.00;;;;;;;;4981999;28;45590;-80
2023/07/15 06:57:37;;;;;;;;;2.00;0.50;;;;;;;;4959682;28;45885;-78
2023/07/15 07:00:04;;;;;;;;;3.50;1.00;;;;;;;;4979354;28;45893;-79
2023/07/15 07:02:29;;;;;;;;;2.00;2.00;;;;;;;;4973248;28;46151;-78
2023/07/15 07:04:54;;;;;;;;;2.00;1.00;;;;;;;;4975217;28;45826;-79
2023/07/15 07:07:22;;;;;;;;;0.25;0.25;;;;;;;;4976027;28;45866;-81
2023/07/15 07:09:49;;;;;;;;;1.75;1.25;;;;;;;;4954883;28;46212;-79
2023/07/15 07:12:14;;;;;;;;;1.00;1.00;;;;;;;;4972959;28;46691;-78
2023/07/15 07:14:40;;;;;;;;;7.00;5.00;;;;;;;;4973324;28;45547;-79
2023/07/15 07:17:05;;;;;;;;;1.25;1.25;;;;;;;;4973739;28;45604;-79
2023/07/15 07:19:31;;;;;;;;;1.25;1.25;;;;;;;;4971936;28;45754;-79
2023/07/15 07:21:56;;;;;;;;;1.50;1.00;;;;;;;;4981714;28;46112;-79
2023/07/15 07:24:22;;;;;;;;;1.00;1.00;;;;;;;;4975174;28;45723;-78
2023/07/15 07:26:48;;;;;;;;;4.75;4.75;;;;;;;;4979227;28;45685;-79
2023/07/15 07:29:14;;;;;;;;;1.00;1.00;;;;;;;;4992298;28;45903;-78
2023/07/15 07:31:39;;;;;;;;;0.75;0.75;;;;;;;;4969982;28;46258;-80
2023/07/15 07:34:04;;;;;;;;;2.25;1.00;;;;;;;;4968412;28;45538;-78
2023/07/15 07:36:31;;;;;;;;;1.00;1.00;;;;;;;;4975008;28;45505;-78
2023/07/15 07:38:59;;;;;;;;;1.00;1.00;;;;;;;;4968970;28;45494;-80
2023/07/15 07:41:24;;;;;;;;;4.75;2.50;;;;;;;;4970731;28;45944;-80
2023/07/15 07:43:49;;;;;;;;;1.25;1.00;;;;;;;;4980126;28;45434;-80
2023/07/15 07:46:14;;;;;;;;;3.25;2.75;;;;;;;;4958708;28;45699;-79
2023/07/15 07:48:40;;;;;;;;;3.00;2.00;;;;;;;;4971002;28;45531;-80
2023/07/15 07:51:05;;;;;;;;;1.00;1.00;;;;;;;;4959849;28;46898;-80
2023/07/15 07:53:31;;;;;;;;;3.75;2.00;;;;;;;;4949401;28;45558;-79
2023/07/15 07:55:57;;;;;;;;;1.00;1.00;;;;;;;;4974823;28;45779;-78
2023/07/15 07:58:22;;;;;;;;;3.00;2.00;;;;;;;;4973486;28;45484;-79
2023/07/15 08:00:50;;;;;;;;;2.50;1.00;;;;;;;;4974368;28;45428;-79
2023/07/15 08:03:16;;;;;;;;;0.75;0.75;;;;;;;;4975417;28;45693;-78
2023/07/15 08:05:42;;;;;;;;;2.00;1.00;;;;;;;;4964888;28;45771;-78
2023/07/15 08:08:09;;;;;;;;;2.75;0.75;;;;;;;;4962434;28;45567;-78
2023/07/15 08:10:34;;;;;;;;;1.00;1.00;;;;;;;;4954420;28;47610;-79
2023/07/15 08:13:02;;;;;;;;;1.00;1.00;;;;;;;;4971736;28;45501;-80
2023/07/15 08:15:28;;;;;;;;;2.75;1.50;;;;;;;;4962209;28;45893;-79
2023/07/15 08:17:53;;;;;;;;;2.00;1.00;;;;;;;;4986539;28;45633;-79
2023/07/15 08:20:18;;;;;;;;;2.00;2.00;;;;;;;;4981667;28;46255;-79
2023/07/15 08:22:43;;;;;;;;;1.00;0.00;;;;;;;;4986993;28;45331;-78
2023/07/15 08:25:09;;;;;;;;;0.50;0.50;;;;;;;;4982463;28;45453;-78
2023/07/15 08:27:34;;;;;;;;;1.00;0.75;;;;;;;;4972539;28;45594;-79
2023/07/15 08:29:59;;;;;;;;;1.00;1.00;;;;;;;;4984591;28;46341;-80
2023/07/15 08:32:24;;;;;;;;;0.00;0.00;;;;;;;;4985048;28;45471;-78
2023/07/15 08:34:57;;;;;;;;;1.00;0.25;;;;;;;;4979662;28;45395;-79
2023/07/15 08:37:23;;;;;;;;;1.00;0.00;;;;;;;;4972041;28;45383;-80
2023/07/15 08:39:48;;;;;;;;;1.50;1.00;;;;;;;;4963836;28;46963;-79
2023/07/15 08:42:13;;;;;;;;;1.00;1.00;;;;;;;;4987959;28;45811;-78
2023/07/15 08:44:39;;;;;;;;;1.00;1.00;;;;;;;;4982444;28;45327;-79
2023/07/15 08:47:04;;;;;;;;;1.75;0.75;;;;;;;;4956982;28;45407;-78
2023/07/15 08:49:31;;;;;;;;;1.75;1.75;;;;;;;;4977199;28;46157;-82
2023/07/15 08:51:57;;;;;;;;;1.00;1.00;;;;;;;;4978171;28;45916;-79
2023/07/15 08:54:23;;;;;;;;;1.00;1.00;;;;;;;;4960786;28;45433;-79
2023/07/15 08:56:48;;;;;;;;;2.25;1.75;;;;;;;;4977542;28;45713;-81
2023/07/15 08:59:18;;;;;;;;;0.50;0.50;;;;;;;;4976904;28;46159;-81
2023/07/15 09:01:43;;;;;;;;;1.00;1.00;;;;;;;;4991093;28;45741;-79
2023/07/15 09:04:09;;;;;;;;;0.75;0.75;;;;;;;;4985895;28;45829;-79
2023/07/15 09:06:35;;;;;;;;;2.75;1.00;;;;;;;;4975134;28;46096;-81
2023/07/15 09:09:00;;;;;;;;;2.00;2.00;;;;;;;;4984793;28;46153;-79
2023/07/15 09:11:36;;;;;;;;;0.75;0.75;;;;;;;;4983590;28;45783;-78
2023/07/15 09:14:10;;;;;;;;;11.25;9.25;;;;;;;;4954106;28;45847;-79
2023/07/15 09:16:38;;;;;;;;;5.50;5.50;;;;;;;;4986043;28;45985;-80
2023/07/15 09:19:04;;;;;;;;;12.33;9.33;;;;;;;;4970272;28;46874;-80
2023/07/15 09:21:29;;;;;;;;;1.00;1.00;;;;;;;;4975849;28;45566;-78
2023/07/15 09:23:59;;;;;;;;;2.00;1.25;;;;;;;;4978386;28;45679;-80
2023/07/15 09:26:25;;;;;;;;;1.00;1.00;;;;;;;;4982159;28;45910;-79
2023/07/15 09:28:50;;;;;;;;;2.00;2.00;;;;;;;;4955052;28;47079;-81
2023/07/15 09:31:21;;;;;;;;;1.50;1.50;;;;;;;;4977379;28;45710;-80
2023/07/15 09:33:47;;;;;;;;;5.00;4.00;;;;;;;;4974533;28;45774;-78
2023/07/15 09:36:12;;;;;;;;;3.00;3.00;;;;;;;;4983876;28;45709;-80
2023/07/15 09:38:38;;;;;;;;;3.00;1.75;;;;;;;;4954650;28;46245;-79
2023/07/15 09:41:07;;;;;;;;;0.75;0.75;;;;;;;;4984101;28;45729;-80
2023/07/15 09:43:44;;;;;;;;;2.75;2.00;;;;;;;;4972429;28;45335;-79
2023/07/15 09:46:09;;;;;;;;;2.00;2.00;;;;;;;;4986255;28;45604;-80
2023/07/15 09:48:34;;;;;;;;;1.50;0.50;;;;;;;;4968124;28;46179;-80
2023/07/15 09:51:00;;;;;;;;;1.00;1.00;;;;;;;;4959705;28;46103;-79
2023/07/15 09:53:25;;;;;;;;;2.25;2.00;;;;;;;;4985388;28;45339;-80
2023/07/15 09:55:51;;;;;;;;;4.00;2.00;;;;;;;;4973287;28;45813;-81
2023/07/15 09:58:21;;;;;;;;;1.00;1.00;;;;;;;;4975355;28;45737;-79
2023/07/15 10:00:50;;;;;;;;;1.25;1.25;;;;;;;;4992841;28;45925;-78
2023/07/15 10:03:22;;;;;;;;;1.00;1.00;;;;;;;;4993587;28;45415;-80
2023/07/15 10:05:49;;;;;;;;;1.00;0.50;;;;;;;;4981752;28;45483;-82
2023/07/15 10:08:14;;;;;;;;;1.75;1.75;;;;;;;;4988357;28;45511;-80
2023/07/15 10:10:40;;;;;;;;;1.25;1.25;;;;;;;;4983072;28;45847;-80
2023/07/15 10:13:06;;;;;;;;;1.50;1.50;;;;;;;;4985005;28;45353;-80
2023/07/15 10:15:32;;;;;;;;;2.00;2.00;;;;;;;;4967896;28;45690;-80
2023/07/15 10:18:10;;;;;;;;;2.75;1.75;;;;;;;;4984178;28;45478;-79
2023/07/15 10:20:35;;;;;;;;;1.00;0.00;;;;;;;;4982113;28;45702;-79
2023/07/15 10:23:01;;;;;;;;;1.00;1.00;;;;;;;;4958198;28;45820;-79
2023/07/15 10:25:27;;;;;;;;;3.25;2.00;;;;;;;;4972544;28;46555;-80
2023/07/15 10:28:08;;;;;;;;;2.00;2.00;;;;;;;;4986449;28;46385;-83
2023/07/15 10:30:34;;;;;;;;;1.25;1.25;;;;;;;;4995013;28;45719;-80
2023/07/15 10:33:08;;;;;;;;;1.75;1.25;;;;;;;;4966244;28;45756;-81
2023/07/15 10:35:34;;;;;;;;;3.25;3.25;;;;;;;;4983859;28;45406;-81
2023/07/15 10:38:18;;;;;;;;;1.25;1.00;;;;;;;;4982668;28;46660;-80
2023/07/15 10:40:47;;;;;;;;;3.00;2.00;;;;;;;;4972875;28;45651;-80
2023/07/15 10:43:12;;;;;;;;;2.25;1.50;;;;;;;;4973034;28;45455;-81
2023/07/15 10:45:49;;;;;;;;;8.75;4.00;;;;;;;;4986913;28;45453;-80
2023/07/15 10:48:14;;;;;;;;;1.00;1.00;;;;;;;;4978224;28;45400;-82
2023/07/15 10:50:42;;;;;;;;;2.50;2.00;;;;;;;;4963862;28;45593;-80
2023/07/15 10:53:37;;;;;;;;;4.00;1.00;;;;;;;;4990245;28;45435;-80
2023/07/15 10:56:09;;;;;;;;;1.75;1.00;;;;;;;;4965826;28;45781;-82
2023/07/15 10:58:35;;;;;;;;;5.00;1.25;;;;;;;;4973266;28;45511;-81
2023/07/15 11:01:01;;;;;;;;;2.00;1.00;;;;;;;;4978238;28;45412;-83
2023/07/15 11:03:27;;;;;;;;;3.50;1.00;;;;;;;;4980128;28;45706;-82
2023/07/15 11:05:57;;;;;;;;;2.25;2.00;;;;;;;;4976867;28;45706;-80
2023/07/15 11:08:22;;;;;;;;;3.00;3.00;;;;;;;;4976171;28;45957;-80
2023/07/15 11:10:49;;;;;;;;;6.00;4.25;;;;;;;;4987763;28;45531;-80
2023/07/15 11:13:15;;;;;;;;;4.00;3.00;;;;;;;;4988267;28;45397;-80
2023/07/15 11:15:41;;;;;;;;;3.75;2.50;;;;;;;;4986088;28;45684;-79
2023/07/15 11:18:13;;;;;;;;;2.00;2.00;;;;;;;;4984235;28;46415;-80
2023/07/15 11:20:38;;;;;;;;;3.75;2.50;;;;;;;;4988389;28;45529;-80
2023/07/15 11:23:03;;;;;;;;;2.00;2.00;;;;;;;;4989048;28;46026;-79
2023/07/15 11:25:29;;;;;;;;;5.25;3.25;;;;;;;;4986488;28;46039;-80
2023/07/15 11:27:57;;;;;;;;;3.50;2.75;;;;;;;;4988568;28;45469;-78
2023/07/15 11:30:23;;;;;;;;;3.00;3.00;;;;;;;;4963515;28;45888;-80
2023/07/15 11:32:54;;;;;;;;;3.25;2.00;;;;;;;;4987353;28;45477;-80
2023/07/15 11:35:21;;;;;;;;;1.75;1.75;;;;;;;;4982049;28;45564;-81
2023/07/15 11:37:47;;;;;;;;;1.00;1.00;;;;;;;;4987194;28;46262;-79
2023/07/15 11:40:15;;;;;;;;;1.00;1.00;;;;;;;;4980197;28;45720;-80
2023/07/15 11:42:40;;;;;;;;;3.00;3.00;;;;;;;;4984070;28;45576;-82
2023/07/15 11:45:06;;;;;;;;;3.00;1.00;;;;;;;;4980620;28;46198;-81
2023/07/15 11:47:35;;;;;;;;;2.00;1.00;;;;;;;;4975684;28;46248;-78
2023/07/15 11:50:01;;;;;;;;;2.00;2.00;;;;;;;;4955141;28;45538;-80
2023/07/15 11:52:26;;;;;;;;;2.00;2.00;;;;;;;;4982759;28;45504;-82
2023/07/15 11:54:53;;;;;;;;;4.00;3.00;;;;;;;;4938222;28;45521;-83
2023/07/15 11:57:27;;;;;;;;;1.00;1.00;;;;;;;;4958509;28;47101;-81
2023/07/15 11:59:53;;;;;;;;;3.00;2.00;;;;;;;;4982232;28;45458;-81
2023/07/15 12:02:19;;;;;;;;;4.25;2.75;;;;;;;;4974067;28;45514;-81
2023/07/15 12:04:45;;;;;;;;;2.00;2.00;;;;;;;;4972734;28;46005;-82
2023/07/15 12:07:11;;;;;;;;;3.00;1.75;;;;;;;;4974367;28;46114;-82
2023/07/15 12:09:36;;;;;;;;;2.00;2.00;;;;;;;;4986292;28;45499;-79
2023/07/15 12:12:01;;;;;;;;;4.25;3.25;;;;;;;;4975438;28;45738;-81
2023/07/15 12:14:30;;;;;;;;;2.00;1.50;;;;;;;;4984063;28;45799;-81
2023/07/15 12:16:58;;;;;;;;;2.00;2.00;;;;;;;;4983343;28;46627;-82
2023/07/15 12:19:24;;;;;;;;;2.75;1.00;;;;;;;;4981893;28;45696;-80
2023/07/15 12:21:49;;;;;;;;;1.00;1.00;;;;;;;;4979770;28;45541;-80
2023/07/15 12:24:14;;;;;;;;;1.00;1.00;;;;;;;;4963371;28;46199;-81
2023/07/15 12:26:40;;;;;;;;;2.25;2.00;;;;;;;;4971979;28;46726;-80
2023/07/15 12:29:05;;;;;;;;;3.75;2.25;;;;;;;;4990985;28;45647;-80
2023/07/15 12:31:30;;;;;;;;;2.75;2.75;;;;;;;;4984854;28;45620;-81
2023/07/15 12:33:55;;;;;;;;;4.25;3.00;;;;;;;;4986365;28;45947;-80
2023/07/15 12:36:21;;;;;;;;;4.75;4.75;;;;;;;;4983103;28;45492;-80
2023/07/15 12:38:46;;;;;;;;;3.00;3.00;;;;;;;;4973152;28;45503;-80
2023/07/15 12:41:12;;;;;;;;;4.25;1.00;;;;;;;;4971293;28;45491;-82
2023/07/15 12:43:38;;;;;;;;;2.75;2.00;;;;;;;;4962389;28;46188;-81
2023/07/15 12:46:03;;;;;;;;;2.50;2.00;;;;;;;;4954020;28;47085;-79
2023/07/15 12:48:28;;;;;;;;;3.50;3.50;;;;;;;;4978827;28;45769;-80
2023/07/15 12:50:54;;;;;;;;;4.00;3.00;;;;;;;;4974288;28;45847;-79
2023/07/15 12:53:20;;;;;;;;;3.00;3.00;;;;;;;;4975618;28;45535;-81
2023/07/15 12:55:45;;;;;;;;;1.00;1.00;;;;;;;;4975847;28;45399;-82
2023/07/15 12:58:11;;;;;;;;;3.00;2.00;;;;;;;;4974177;28;45470;-80
2023/07/15 13:00:36;;;;;;;;;1.50;1.50;;;;;;;;4972389;28;45581;-79
2023/07/15 13:03:02;;;;;;;;;5.25;4.00;;;;;;;;4972105;28;45498;-81
2023/07/15 13:05:27;;;;;;;;;5.50;3.75;;;;;;;;4954331;28;47333;-81
2023/07/15 13:07:53;;;;;;;;;4.75;3.75;;;;;;;;4975210;28;45756;-79
2023/07/15 13:10:18;;;;;;;;;3.00;2.00;;;;;;;;4984715;28;45850;-81
2023/07/15 13:12:43;;;;;;;;;1.50;1.50;;;;;;;;4974711;28;45424;-80
2023/07/15 13:15:09;;;;;;;;;3.00;2.00;;;;;;;;4974344;28;45757;-80
2023/07/15 13:17:34;;;;;;;;;3.00;2.00;;;;;;;;4975521;28;45358;-79
2023/07/15 13:19:59;;;;;;;;;4.50;2.50;;;;;;;;4976802;28;45376;-79
2023/07/15 13:22:25;;;;;;;;;1.75;1.00;;;;;;;;4983079;28;45720;-80
2023/07/15 13:24:50;;;;;;;;;2.50;1.00;;;;;;;;4990727;28;45453;-79
2023/07/15 13:27:16;;;;;;;;;0.75;0.75;;;;;;;;4991845;28;45448;-81
2023/07/15 13:29:41;;;;;;;;;1.00;1.00;;;;;;;;4990566;28;45432;-82
2023/07/15 13:32:06;;;;;;;;;2.25;2.25;;;;;;;;4978863;28;45686;-81
2023/07/15 13:34:31;;;;;;;;;2.00;1.00;;;;;;;;4977225;28;45569;-81
2023/07/15 13:36:57;;;;;;;;;3.50;2.00;;;;;;;;4985774;28;45885;-82
2023/07/15 13:39:32;;;;;;;;;0.75;0.75;;;;;;;;4984272;28;45577;-82
2023/07/15 13:41:58;;;;;;;;;0.50;0.50;;;;;;;;4962659;28;45741;-82
2023/07/15 13:44:23;;;;;;;;;1.00;1.00;;;;;;;;4984102;28;45523;-82
2023/07/15 13:46:49;;;;;;;;;1.25;1.00;;;;;;;;4975519;28;45860;-82
2023/07/15 13:49:14;;;;;;;;;1.00;1.00;;;;;;;;4982079;28;45876;-83
2023/07/15 13:51:39;;;;;;;;;1.00;1.00;;;;;;;;4979039;28;45839;-81
2023/07/15 13:54:04;;;;;;;;;0.50;0.50;;;;;;;;4984150;28;45638;-81
2023/07/15 13:56:30;;;;;;;;;1.00;1.00;;;;;;;;4963017;28;45507;-80
2023/07/15 13:58:55;;;;;;;;;2.25;1.00;;;;;;;;4987014;28;45706;-80
2023/07/15 14:01:21;;;;;;;;;1.50;1.50;;;;;;;;4977980;28;45336;-80
2023/07/15 14:03:46;;;;;;;;;0.00;0.00;;;;;;;;4968087;28;47773;-80
2023/07/15 14:06:11;;;;;;;;;1.00;1.00;;;;;;;;4988957;28;45886;-81
2023/07/15 14:08:37;;;;;;;;;0.25;0.25;;;;;;;;4988649;28;45790;-82
2023/07/15 14:11:03;;;;;;;;;1.00;1.00;;;;;;;;4974905;28;45607;-82
2023/07/15 14:13:28;;;;;;;;;1.75;0.75;;;;;;;;4974886;28;46580;-80
2023/07/15 14:15:53;;;;;;;;;2.00;0.50;;;;;;;;4975165;28;45727;-74
2023/07/15 14:18:18;;;;;;;;;1.00;1.00;;;;;;;;4974680;28;45397;-73
2023/07/15 14:20:43;;;;;;;;;2.00;0.00;;;;;;;;4980891;28;45701;-73
2023/07/15 14:23:09;;;;;;;;;2.00;0.50;;;;;;;;4983205;28;47099;-74
2023/07/15 14:25:34;;;;;;;;;2.25;0.00;;;;;;;;4984562;28;45674;-73
2023/07/15 14:27:59;;;;;;;;;0.25;0.25;;;;;;;;4985665;28;45471;-72
2023/07/15 14:30:24;;;;;;;;;1.50;1.50;;;;;;;;4981343;28;45429;-74
2023/07/15 14:32:50;;;;;;;;;1.00;1.00;;;;;;;;4973120;28;46877;-74
2023/07/15 14:35:18;;;;;;;;;1.00;1.00;;;;;;;;4981937;28;45281;-73
2023/07/15 14:37:43;;;;;;;;;1.25;1.00;;;;;;;;4989251;28;45857;-73